KMUI/MUI METAR and TAF weather

Enter ICAO airport designator
Station Type Date Time Source
KMUI METAR 2021/09/25 02:56 UTC NOAA

KMUI 250256Z AUTO 00000KT 10SM CLR 12/10 A3008 RMK AO2 SLP189 T01150097 50005


Station Type Date Time Source
KMUI Decoded METAR 2021/09/25 02:56 UTC NOAA

Muir Army Air Field / Indiantown, PA, United States (KMUI) 40-26N 076-34W
Sep 24, 2021 - 10:56 PM EDT / 2021.09.25 0256 UTC
Wind: Calm:0
Visibility: 10 mile(s):0
Sky conditions: clear
Temperature: 52.7 F (11.5 C)
Dew Point: 49.5 F (9.7 C)
Relative Humidity: 88%
Pressure (altimeter): 30.08 in. Hg (1018 hPa)
Pressure tendency: 0.01 inches (0.5 hPa) higher than three hours ago
ob: KMUI 250256Z AUTO 00000KT 10SM CLR 12/10 A3008 RMK AO2 SLP189 T01150097 50005
cycle: 3

Station Type Date Time Source
KMUI TAF 2021/09/24 22:48 UTC NOAA

TAF TAF
AMD KMUI 242238Z 2422/2601 VRB06KT 9999 FEW200 QNH3003INS
BECMG 2423/2424 VRB06KT 9999 SKC QNH2992INS TX23/2519Z TN08/2509Z LAST NO
AMDS AFT 2504 NEXT 2711

Example: see airport list